LFBE/EGC METAR and TAF weather

Enter ICAO airport designator
Station Type Date Time Source
LFBE METAR 2019/08/20 10:00 UTC NOAA

LFBE 201000Z AUTO 29006KT 250V320 CAVOK 19/12 Q1023 NOSIG


Station Type Date Time Source
LFBE Decoded METAR 2019/08/20 10:00 UTC NOAA

Bergerac, France (LFBE) 44-49N 000-31E 52M
Aug 20, 2019 - 06:00 AM EDT / 2019.08.20 1000 UTC
Wind: from the WNW (290 degrees) at 7 MPH (6 KT) (direction variable):0
Visibility: greater than 7 mile(s):0
Temperature: 66 F (19 C)
Dew Point: 53 F (12 C)
Relative Humidity: 63%
Pressure (altimeter): 30.21 in. Hg (1023 hPa)
ob: LFBE 201000Z AUTO 29006KT 250V320 CAVOK 19/12 Q1023 NOSIG
cycle: 10

Station Type Date Time Source
LFBE TAF 2019/08/20 06:21 UTC NOAA

TAF LFBE 200500Z 2006/2106 28005KT CAVOK
BECMG 2019/2021 VRB02KT

Example: see airport list